Terminal Aerodrome Forecast
Issued by NWS

Home | Current Version | Previous Version | Text Only | Print | Product List | Glossary On
Versions: 1 2 3 4 5 6 7 8 9 10 11 12 13 14 15 16 17 18 19 20 21 22 23 24 25
672
FTUS45 KBYZ 122320
TAFLVM
TAF
KLVM 122320Z 1300/1324 30012KT P6SM BKN110
     FM130300 25012G24KT P6SM BKN100
     FM131500 24020G35KT P6SM VCSH OVC050
     FM132000 27021G35KT P6SM BKN050=

USA.gov is the U.S. government's official web portal to all federal, state and local government web resources and services.